createdAt,value
2018-01-19T00:00:18.872Z,0.00
2018-01-19T00:01:18.841Z,0.00
2018-01-19T00:02:18.811Z,0.00
2018-01-19T00:03:18.791Z,0.00
2018-01-19T00:04:18.749Z,0.00
2018-01-19T00:05:18.718Z,0.00
2018-01-19T00:06:18.702Z,0.00
2018-01-19T00:07:18.655Z,0.00
2018-01-19T00:08:18.625Z,0.00
2018-01-19T00:09:18.597Z,0.00
2018-01-19T00:10:18.582Z,0.00
2018-01-19T00:11:18.544Z,0.00
2018-01-19T00:12:18.507Z,0.00
2018-01-19T00:13:18.488Z,0.00
2018-01-19T00:14:18.440Z,0.00
2018-01-19T00:15:18.419Z,0.00
2018-01-19T00:16:18.386Z,0.00
2018-01-19T00:17:18.354Z,0.00
2018-01-19T00:18:18.321Z,0.00
2018-01-19T00:19:18.296Z,0.00
2018-01-19T00:20:18.269Z,0.00
2018-01-19T00:21:18.231Z,0.00
2018-01-19T00:22:18.203Z,0.00
2018-01-19T00:23:18.172Z,0.00
2018-01-19T00:24:18.145Z,0.00
2018-01-19T00:25:18.108Z,0.00
2018-01-19T00:26:18.083Z,0.00
2018-01-19T00:27:18.065Z,0.00
2018-01-19T00:28:18.024Z,0.00
2018-01-19T00:29:17.996Z,0.00
2018-01-19T00:30:17.961Z,0.00
2018-01-19T00:31:17.934Z,0.00
2018-01-19T00:32:17.899Z,0.00
2018-01-19T00:33:17.865Z,0.00
2018-01-19T00:34:17.840Z,0.00
2018-01-19T00:35:17.813Z,0.00
2018-01-19T00:36:17.777Z,0.00
2018-01-19T00:37:17.751Z,0.00
2018-01-19T00:38:17.731Z,0.00
2018-01-19T00:39:17.688Z,0.00
2018-01-19T00:40:17.659Z,0.00
2018-01-19T00:41:17.655Z,0.00
2018-01-19T00:42:17.591Z,0.00
2018-01-19T00:43:17.568Z,0.00
2018-01-19T00:44:17.534Z,0.00
2018-01-19T00:45:17.502Z,0.00
2018-01-19T00:46:17.472Z,0.00
2018-01-19T00:47:17.444Z,0.00
2018-01-19T00:48:17.420Z,0.00
2018-01-19T00:49:17.382Z,0.00
2018-01-19T00:50:17.362Z,0.00
2018-01-19T00:51:17.330Z,0.00
2018-01-19T00:52:17.312Z,0.00
2018-01-19T00:53:17.272Z,0.00
2018-01-19T00:54:17.238Z,0.00
2018-01-19T00:55:17.202Z,0.00
2018-01-19T00:56:17.180Z,0.00
2018-01-19T00:57:17.141Z,0.00
2018-01-19T00:58:17.125Z,0.00
2018-01-19T00:59:17.079Z,0.00
2018-01-19T01:00:17.057Z,0.00
2018-01-19T01:01:17.039Z,0.00
2018-01-19T01:02:17.001Z,0.00
2018-01-19T01:03:16.964Z,0.00
2018-01-19T01:04:16.929Z,0.00
2018-01-19T01:05:16.915Z,0.00
2018-01-19T01:06:16.878Z,0.00
2018-01-19T01:07:16.854Z,0.00
2018-01-19T01:08:16.820Z,0.00
2018-01-19T01:09:16.788Z,0.00
2018-01-19T01:10:16.752Z,0.00
2018-01-19T01:11:16.722Z,0.00
2018-01-19T01:12:16.709Z,0.00
2018-01-19T01:13:16.665Z,0.00
2018-01-19T01:14:16.631Z,0.00
2018-01-19T01:15:16.607Z,0.00
2018-01-19T01:16:16.584Z,0.00
2018-01-19T01:17:16.550Z,0.00
2018-01-19T01:18:16.518Z,0.00
2018-01-19T01:19:16.485Z,0.00
2018-01-19T01:20:16.463Z,0.00
2018-01-19T01:21:16.418Z,0.00
2018-01-19T01:22:16.406Z,0.00
2018-01-19T01:23:16.363Z,0.00
2018-01-19T01:24:16.333Z,0.00
2018-01-19T01:25:16.306Z,0.00
2018-01-19T01:26:16.271Z,0.00
2018-01-19T01:27:16.247Z,0.00
2018-01-19T01:28:16.213Z,0.00
2018-01-19T01:29:16.183Z,0.00
2018-01-19T01:30:16.186Z,0.00
2018-01-19T01:31:16.135Z,0.00
2018-01-19T01:32:16.101Z,0.00
2018-01-19T01:33:16.065Z,0.00
2018-01-19T01:34:16.040Z,0.00
2018-01-19T01:35:16.005Z,0.00
2018-01-19T01:36:15.993Z,0.00
2018-01-19T01:37:15.942Z,0.00
2018-01-19T01:38:15.917Z,0.00
2018-01-19T01:39:15.887Z,0.00
2018-01-19T01:40:15.849Z,0.00
2018-01-19T01:41:15.824Z,0.00
2018-01-19T01:42:15.796Z,0.00
2018-01-19T01:43:15.767Z,0.00
2018-01-19T01:44:15.733Z,0.00
2018-01-19T01:45:15.710Z,0.00
2018-01-19T01:46:15.692Z,0.00
2018-01-19T01:47:15.646Z,0.00
2018-01-19T01:48:15.608Z,0.00
2018-01-19T01:49:15.585Z,0.00
2018-01-19T01:50:15.555Z,0.00
2018-01-19T01:51:15.517Z,0.00
2018-01-19T01:52:15.489Z,0.00
2018-01-19T01:53:15.461Z,0.00
2018-01-19T01:54:15.438Z,0.00
2018-01-19T01:55:15.405Z,0.00
2018-01-19T01:56:15.374Z,0.00
2018-01-19T01:57:15.351Z,0.00
2018-01-19T01:58:15.314Z,0.00
2018-01-19T01:59:15.284Z,0.00
2018-01-19T02:00:15.256Z,0.00
2018-01-19T02:01:15.218Z,0.00
2018-01-19T02:02:15.191Z,0.00
2018-01-19T02:03:15.176Z,0.00
2018-01-19T02:04:15.141Z,0.00
2018-01-19T02:05:15.106Z,0.00
2018-01-19T02:06:15.077Z,0.00
2018-01-19T02:07:15.044Z,0.00
2018-01-19T02:08:15.009Z,0.00
2018-01-19T02:09:14.990Z,0.00
2018-01-19T02:10:14.959Z,0.00
2018-01-19T02:11:14.927Z,0.00
2018-01-19T02:12:14.892Z,0.00
2018-01-19T02:13:14.861Z,0.00
2018-01-19T02:14:14.832Z,0.00
2018-01-19T02:15:14.810Z,0.00
2018-01-19T02:16:14.778Z,0.00
2018-01-19T02:17:14.751Z,0.00
2018-01-19T02:18:14.720Z,0.00
2018-01-19T02:19:14.683Z,0.00
2018-01-19T02:20:14.658Z,0.00
2018-01-19T02:21:14.631Z,0.00
2018-01-19T02:22:14.598Z,0.00
2018-01-19T02:23:14.565Z,0.00
2018-01-19T02:24:14.539Z,0.00
2018-01-19T02:25:14.499Z,0.00
2018-01-19T02:26:14.492Z,0.00
2018-01-19T02:27:14.442Z,0.00
2018-01-19T02:28:14.411Z,0.00
2018-01-19T02:29:14.390Z,0.00
2018-01-19T02:30:14.348Z,0.00
2018-01-19T02:31:14.332Z,0.00
2018-01-19T02:32:14.286Z,0.00
2018-01-19T02:33:14.262Z,0.00
2018-01-19T02:34:14.232Z,0.00
2018-01-19T02:35:14.214Z,0.00
2018-01-19T02:36:14.174Z,0.00
2018-01-19T02:37:14.144Z,0.00
2018-01-19T02:38:14.107Z,0.00
2018-01-19T02:39:14.091Z,0.00
2018-01-19T02:40:14.047Z,0.00
2018-01-19T02:41:14.024Z,0.00
2018-01-19T02:42:13.987Z,0.00
2018-01-19T02:43:13.968Z,0.00
2018-01-19T02:44:13.939Z,0.00
2018-01-19T02:45:13.912Z,0.00
2018-01-19T02:46:13.883Z,0.00
2018-01-19T02:47:13.837Z,0.00
2018-01-19T02:48:13.811Z,0.00
2018-01-19T02:49:13.788Z,0.00
2018-01-19T02:50:13.752Z,0.00
2018-01-19T02:51:13.719Z,0.00
2018-01-19T02:52:13.691Z,0.00
2018-01-19T02:53:13.655Z,0.00
2018-01-19T02:54:13.633Z,0.00
2018-01-19T02:55:13.601Z,0.00
2018-01-19T02:56:13.570Z,0.00
2018-01-19T02:57:13.539Z,0.00
2018-01-19T02:58:13.512Z,0.00
2018-01-19T02:59:13.483Z,0.00
2018-01-19T03:00:13.453Z,0.00
2018-01-19T03:01:13.420Z,0.00
2018-01-19T03:02:13.388Z,0.00
2018-01-19T03:03:13.369Z,0.00
2018-01-19T03:04:13.346Z,0.00
2018-01-19T03:05:13.296Z,0.00
2018-01-19T03:06:13.284Z,0.00
2018-01-19T03:07:13.241Z,0.00
2018-01-19T03:08:13.229Z,0.00
2018-01-19T03:09:13.187Z,0.00
2018-01-19T03:10:13.151Z,0.00
2018-01-19T03:11:13.117Z,0.00
2018-01-19T03:12:13.094Z,0.00
2018-01-19T03:13:13.067Z,0.00
2018-01-19T03:14:13.067Z,0.00
2018-01-19T03:15:13.001Z,0.00
2018-01-19T03:16:12.974Z,0.00
2018-01-19T03:17:12.950Z,0.00
2018-01-19T03:18:12.908Z,0.00
2018-01-19T03:19:12.883Z,0.00
2018-01-19T03:20:12.849Z,0.00
2018-01-19T03:21:12.818Z,0.00
2018-01-19T03:22:12.787Z,0.00
2018-01-19T03:23:12.767Z,0.00
2018-01-19T03:24:12.730Z,0.00
2018-01-19T03:25:12.697Z,0.00
2018-01-19T03:26:12.668Z,0.00
2018-01-19T03:27:12.653Z,0.00
2018-01-19T03:28:12.609Z,0.00
2018-01-19T03:29:12.574Z,0.00
2018-01-19T03:30:12.547Z,0.00
2018-01-19T03:31:12.522Z,0.00
2018-01-19T03:32:12.486Z,0.00
2018-01-19T03:33:12.473Z,0.00
2018-01-19T03:34:12.421Z,0.00
2018-01-19T03:35:12.408Z,0.00
2018-01-19T03:36:12.382Z,0.00
2018-01-19T03:37:12.337Z,0.00
2018-01-19T03:38:12.304Z,0.00
2018-01-19T03:39:12.280Z,0.00
2018-01-19T03:40:12.246Z,0.00
2018-01-19T03:41:12.218Z,0.00
2018-01-19T03:42:12.197Z,0.00
2018-01-19T03:43:12.151Z,0.00
2018-01-19T03:44:12.144Z,0.00
2018-01-19T03:45:12.092Z,0.00
2018-01-19T03:46:12.067Z,0.00
2018-01-19T03:47:12.034Z,0.00
2018-01-19T03:48:12.007Z,0.00
2018-01-19T03:49:11.972Z,0.00
2018-01-19T03:50:11.951Z,0.00
2018-01-19T03:51:11.915Z,0.00
2018-01-19T03:52:11.923Z,0.00
2018-01-19T03:53:11.862Z,0.00
2018-01-19T03:54:11.847Z,0.00
2018-01-19T03:55:11.804Z,0.00
2018-01-19T03:56:11.766Z,0.00
2018-01-19T03:57:11.734Z,0.00
2018-01-19T03:58:11.698Z,0.00
2018-01-19T03:59:11.703Z,0.00
2018-01-19T04:00:11.660Z,0.00
2018-01-19T04:01:11.629Z,0.00
2018-01-19T04:02:11.586Z,0.00
2018-01-19T04:03:11.558Z,0.00
2018-01-19T04:04:11.533Z,0.00
2018-01-19T04:05:11.490Z,0.00
2018-01-19T04:06:11.467Z,0.00
2018-01-19T04:07:11.440Z,0.00
2018-01-19T04:08:11.425Z,0.00
2018-01-19T04:09:11.375Z,0.00
2018-01-19T04:10:11.343Z,0.00
2018-01-19T04:11:11.333Z,0.00
2018-01-19T04:12:11.288Z,0.00
2018-01-19T04:13:11.269Z,0.00
2018-01-19T04:14:11.233Z,0.00
2018-01-19T04:15:11.197Z,0.00
2018-01-19T04:16:11.185Z,0.00
2018-01-19T04:17:11.151Z,0.00
2018-01-19T04:18:11.102Z,0.00
2018-01-19T04:19:11.086Z,0.00
2018-01-19T04:20:11.047Z,0.00
2018-01-19T04:21:11.011Z,0.00
2018-01-19T04:22:10.990Z,0.00
2018-01-19T04:23:10.967Z,0.00
2018-01-19T04:24:10.936Z,0.00
2018-01-19T04:25:10.905Z,0.00
2018-01-19T04:26:10.860Z,0.00
2018-01-19T04:27:10.836Z,0.00
2018-01-19T04:28:10.799Z,0.00
2018-01-19T04:29:10.780Z,0.00
2018-01-19T04:30:10.753Z,0.00
2018-01-19T04:31:10.718Z,0.00
2018-01-19T04:32:10.683Z,0.00
2018-01-19T04:33:10.654Z,0.00
2018-01-19T04:34:10.625Z,0.00
2018-01-19T04:35:10.602Z,0.00
2018-01-19T04:36:10.570Z,0.00
2018-01-19T04:37:10.539Z,0.00
2018-01-19T04:38:10.504Z,0.00
2018-01-19T04:39:10.476Z,0.00
2018-01-19T04:40:10.448Z,0.00
2018-01-19T04:41:10.415Z,0.00
2018-01-19T04:42:10.385Z,0.00
2018-01-19T04:43:10.349Z,0.00
2018-01-19T04:44:10.320Z,0.00
2018-01-19T04:45:10.291Z,0.00
2018-01-19T04:46:10.264Z,0.00
2018-01-19T04:47:10.230Z,0.00
2018-01-19T04:48:10.198Z,0.00
2018-01-19T04:49:10.176Z,0.00
2018-01-19T04:50:10.144Z,0.00
2018-01-19T04:51:10.108Z,0.00
2018-01-19T04:52:10.082Z,0.00
2018-01-19T04:53:10.054Z,0.00
2018-01-19T04:54:10.035Z,0.00
2018-01-19T04:55:09.991Z,0.00
2018-01-19T04:56:09.955Z,0.00
2018-01-19T04:57:09.943Z,0.00
2018-01-19T04:58:09.893Z,0.00
2018-01-19T04:59:09.863Z,0.00
2018-01-19T05:00:09.830Z,0.00
2018-01-19T05:01:09.802Z,0.00
2018-01-19T05:02:09.770Z,0.00
2018-01-19T05:03:09.746Z,0.00
2018-01-19T05:04:09.712Z,0.00
2018-01-19T05:05:09.700Z,0.00
2018-01-19T05:06:09.653Z,0.00
2018-01-19T05:07:09.622Z,0.00
2018-01-19T05:08:09.588Z,0.00
2018-01-19T05:09:09.563Z,0.00
2018-01-19T05:10:09.544Z,0.00
2018-01-19T05:11:09.503Z,0.00
2018-01-19T05:12:09.483Z,0.00
2018-01-19T05:13:09.441Z,0.00
2018-01-19T05:14:09.409Z,0.00
2018-01-19T05:15:09.377Z,0.00
2018-01-19T05:16:09.354Z,0.00
2018-01-19T05:17:09.318Z,0.00
2018-01-19T05:18:09.296Z,0.00
2018-01-19T05:19:09.272Z,0.00
2018-01-19T05:20:09.224Z,0.00
2018-01-19T05:21:09.198Z,0.00
2018-01-19T05:22:09.178Z,0.00
2018-01-19T05:23:09.133Z,0.00
2018-01-19T05:24:09.127Z,0.00
2018-01-19T05:25:09.083Z,0.00
2018-01-19T05:26:09.061Z,0.00
2018-01-19T05:27:09.012Z,0.00
2018-01-19T05:28:08.979Z,0.00
2018-01-19T05:29:08.973Z,0.00
2018-01-19T05:30:08.921Z,0.00
2018-01-19T05:31:08.910Z,0.00
2018-01-19T05:32:08.875Z,0.00
2018-01-19T05:33:08.824Z,0.00
2018-01-19T05:34:08.801Z,0.00
2018-01-19T05:35:08.770Z,0.00
2018-01-19T05:36:08.765Z,0.00
2018-01-19T05:37:08.722Z,0.00
2018-01-19T05:38:08.678Z,0.00
2018-01-19T05:39:08.659Z,0.00
2018-01-19T05:40:08.620Z,0.00
2018-01-19T05:41:08.601Z,0.00
2018-01-19T05:42:08.562Z,0.00
2018-01-19T05:43:08.543Z,0.00
2018-01-19T05:44:08.493Z,0.00
2018-01-19T05:45:08.462Z,0.00
2018-01-19T05:46:08.437Z,0.00
2018-01-19T05:47:09.729Z,0.00
2018-01-19T05:48:09.868Z,0.00
2018-01-19T05:49:08.345Z,0.00
2018-01-19T05:50:08.323Z,0.00
2018-01-19T05:51:08.288Z,0.00
2018-01-19T05:52:08.251Z,0.00
2018-01-19T05:53:08.323Z,0.00
2018-01-19T05:54:08.185Z,0.00
2018-01-19T05:55:08.171Z,0.00
2018-01-19T05:56:08.133Z,0.00
2018-01-19T05:57:08.114Z,0.00
2018-01-19T05:58:08.085Z,0.00
2018-01-19T05:59:08.058Z,0.00
2018-01-19T06:00:08.013Z,0.00
2018-01-19T06:01:07.994Z,0.00
2018-01-19T06:02:07.985Z,0.00
2018-01-19T06:03:07.971Z,0.00
2018-01-19T06:04:07.903Z,0.00
2018-01-19T06:05:07.852Z,0.00
2018-01-19T06:06:07.827Z,0.00
2018-01-19T06:07:07.827Z,0.00
2018-01-19T06:08:07.774Z,0.00
2018-01-19T06:09:07.740Z,0.00
2018-01-19T06:10:07.699Z,0.00
2018-01-19T06:11:07.683Z,0.00
2018-01-19T06:12:07.673Z,0.00
2018-01-19T06:13:07.617Z,0.00
2018-01-19T06:14:07.603Z,0.00
2018-01-19T06:15:07.571Z,0.00
2018-01-19T06:16:07.558Z,0.00
2018-01-19T06:17:07.517Z,0.00
2018-01-19T06:18:07.470Z,0.00
2018-01-19T06:19:07.455Z,0.00
2018-01-19T06:20:07.425Z,0.00
2018-01-19T06:21:07.373Z,0.00
2018-01-19T06:22:07.342Z,0.00
2018-01-19T06:23:07.331Z,0.00
2018-01-19T06:24:07.275Z,0.00
2018-01-19T06:25:07.242Z,0.00
2018-01-19T06:26:07.211Z,0.00
2018-01-19T06:27:07.186Z,0.00
2018-01-19T06:28:07.157Z,0.00
2018-01-19T06:29:07.724Z,0.00
2018-01-19T06:30:07.101Z,0.00
2018-01-19T06:31:07.066Z,0.00
2018-01-19T06:32:07.042Z,0.00
2018-01-19T06:33:07.046Z,0.00
2018-01-19T06:34:06.988Z,0.00
2018-01-19T06:35:06.951Z,0.00
2018-01-19T06:36:06.923Z,0.00
2018-01-19T06:37:06.908Z,0.00
2018-01-19T06:38:06.876Z,0.00
2018-01-19T06:39:06.824Z,0.00
2018-01-19T06:40:06.816Z,0.00
2018-01-19T06:41:06.756Z,0.00
2018-01-19T06:42:06.729Z,0.00
2018-01-19T06:43:06.743Z,0.00
2018-01-19T06:44:06.665Z,0.00
2018-01-19T06:45:06.642Z,0.00
2018-01-19T06:46:06.611Z,0.00
2018-01-19T06:47:06.592Z,0.00
2018-01-19T06:48:06.587Z,0.00
2018-01-19T06:49:06.532Z,0.00
2018-01-19T06:50:06.512Z,0.00
2018-01-19T06:51:06.466Z,0.00
2018-01-19T06:52:06.456Z,0.00
2018-01-19T06:53:06.390Z,0.00
2018-01-19T06:54:06.364Z,0.00
2018-01-19T06:55:06.338Z,0.00
2018-01-19T06:56:06.320Z,0.00
2018-01-19T06:57:06.324Z,0.00
2018-01-19T06:58:06.243Z,0.00
2018-01-19T06:59:06.213Z,0.00
2018-01-19T07:00:06.189Z,0.00
2018-01-19T07:01:06.183Z,0.00
2018-01-19T07:02:06.118Z,0.00
2018-01-19T07:03:06.136Z,0.00
2018-01-19T07:04:06.059Z,0.00
2018-01-19T07:05:06.045Z,0.00
2018-01-19T07:06:06.012Z,0.00
2018-01-19T07:07:06.004Z,0.00
2018-01-19T07:08:05.943Z,0.00
2018-01-19T07:09:05.915Z,0.00
2018-01-19T07:10:05.867Z,0.00
2018-01-19T07:11:05.845Z,0.00
2018-01-19T07:12:05.836Z,0.00
2018-01-19T07:13:05.804Z,0.00
2018-01-19T07:14:05.752Z,0.00
2018-01-19T07:15:05.727Z,0.00
2018-01-19T07:16:05.729Z,0.00
2018-01-19T07:17:05.659Z,0.00
2018-01-19T07:18:05.631Z,0.00
2018-01-19T07:19:05.620Z,0.00
2018-01-19T07:20:05.566Z,0.00
2018-01-19T07:21:05.552Z,0.00
2018-01-19T07:22:05.509Z,0.00
2018-01-19T07:23:05.533Z,0.00
2018-01-19T07:24:05.479Z,0.00
2018-01-19T07:25:05.494Z,0.00
2018-01-19T07:26:05.393Z,0.00
2018-01-19T07:27:05.375Z,0.00
2018-01-19T07:28:05.347Z,0.00
2018-01-19T07:29:05.305Z,0.00
2018-01-19T07:30:05.269Z,0.00
2018-01-19T07:31:05.231Z,0.00
2018-01-19T07:32:05.223Z,0.00
2018-01-19T07:33:05.183Z,0.00
2018-01-19T07:34:05.238Z,0.00
2018-01-19T07:35:06.424Z,0.00
2018-01-19T07:36:05.314Z,0.00
2018-01-19T07:37:05.133Z,0.00
2018-01-19T07:38:05.090Z,0.00
2018-01-19T07:39:04.989Z,0.00
2018-01-19T07:40:04.981Z,0.00
2018-01-19T07:41:04.951Z,0.00
2018-01-19T07:42:04.898Z,0.00
2018-01-19T07:43:04.886Z,5.63
2018-01-19T07:44:04.844Z,5.63
2018-01-19T07:45:04.807Z,5.63
2018-01-19T07:46:04.783Z,5.63
2018-01-19T07:47:04.781Z,0.00
2018-01-19T07:48:04.729Z,0.00
2018-01-19T07:49:04.687Z,5.63
2018-01-19T07:50:04.650Z,0.00
2018-01-19T07:51:04.635Z,5.63
2018-01-19T07:52:04.617Z,5.63
2018-01-19T07:53:04.568Z,5.63
2018-01-19T07:54:04.556Z,5.63
2018-01-19T07:55:04.549Z,0.00
2018-01-19T07:56:04.494Z,0.00
2018-01-19T07:57:04.449Z,0.00
2018-01-19T07:58:04.421Z,0.00
2018-01-19T07:59:04.411Z,0.00
2018-01-19T08:00:04.360Z,0.00
2018-01-19T08:01:04.332Z,0.00
2018-01-19T08:02:04.312Z,0.00
2018-01-19T08:03:04.332Z,0.00
2018-01-19T08:04:04.262Z,0.00
2018-01-19T08:05:04.208Z,0.00
2018-01-19T08:06:04.179Z,0.00
2018-01-19T08:07:04.151Z,0.00
2018-01-19T08:08:04.115Z,0.00
2018-01-19T08:09:04.087Z,0.00
2018-01-19T08:10:04.058Z,0.00
2018-01-19T08:11:04.020Z,0.00
2018-01-19T08:12:04.023Z,0.00
2018-01-19T08:13:03.977Z,0.00
2018-01-19T08:14:03.934Z,0.00
2018-01-19T08:15:03.905Z,0.00
2018-01-19T08:16:03.872Z,5.63
2018-01-19T08:17:03.836Z,5.63
2018-01-19T08:18:03.798Z,5.63
2018-01-19T08:19:03.776Z,5.63
2018-01-19T08:20:03.742Z,0.00
2018-01-19T08:21:03.714Z,0.00
2018-01-19T08:22:03.682Z,5.63
2018-01-19T08:23:03.656Z,5.63
2018-01-19T08:24:03.622Z,5.63
2018-01-19T08:25:03.588Z,5.63
2018-01-19T08:26:03.561Z,5.63
2018-01-19T08:27:03.533Z,5.63
2018-01-19T08:28:03.846Z,5.63
2018-01-19T08:29:03.485Z,5.63
2018-01-19T08:30:03.434Z,5.63
2018-01-19T08:31:03.427Z,5.63
2018-01-19T08:32:03.376Z,5.63
2018-01-19T08:33:03.355Z,5.63
2018-01-19T08:34:03.327Z,5.63
2018-01-19T08:35:03.326Z,5.63
2018-01-19T08:36:03.257Z,5.63
2018-01-19T08:37:03.219Z,11.25
2018-01-19T08:38:03.197Z,11.25
2018-01-19T08:39:03.162Z,11.25
2018-01-19T08:40:03.134Z,11.25
2018-01-19T08:41:03.096Z,11.25
2018-01-19T08:42:03.088Z,11.25
2018-01-19T08:43:03.069Z,11.25
2018-01-19T08:44:03.024Z,11.25
2018-01-19T08:45:02.982Z,11.25
2018-01-19T08:46:02.952Z,11.25
2018-01-19T08:47:02.923Z,11.25
2018-01-19T08:48:02.892Z,11.25
2018-01-19T08:49:02.876Z,11.25
2018-01-19T08:50:02.828Z,11.25
2018-01-19T08:51:02.809Z,11.25
2018-01-19T08:52:02.767Z,11.25
2018-01-19T08:53:02.735Z,16.88
2018-01-19T08:54:02.706Z,16.88
2018-01-19T08:55:02.687Z,16.88
2018-01-19T08:56:02.656Z,16.88
2018-01-19T08:57:02.619Z,16.88
2018-01-19T08:58:02.599Z,22.50
2018-01-19T08:59:02.562Z,22.50
2018-01-19T09:00:02.541Z,22.50
2018-01-19T09:01:02.512Z,22.50
2018-01-19T09:02:02.512Z,28.13
2018-01-19T09:03:02.444Z,28.13
2018-01-19T09:04:02.444Z,28.13
2018-01-19T09:05:02.371Z,28.13
2018-01-19T09:06:02.341Z,33.75
2018-01-19T09:07:02.324Z,33.75
2018-01-19T09:08:02.288Z,33.75
2018-01-19T09:09:02.254Z,33.75
2018-01-19T09:10:02.233Z,33.75
2018-01-19T09:11:02.195Z,33.75
2018-01-19T09:12:02.164Z,28.13
2018-01-19T09:13:02.138Z,33.75
2018-01-19T09:14:02.106Z,33.75
2018-01-19T09:15:02.084Z,33.75
2018-01-19T09:16:02.053Z,39.38
2018-01-19T09:17:02.008Z,39.38
2018-01-19T09:18:01.987Z,39.38
2018-01-19T09:19:01.964Z,39.38
2018-01-19T09:20:01.926Z,39.38
2018-01-19T09:21:01.910Z,39.38
2018-01-19T09:22:01.870Z,39.38
2018-01-19T09:23:01.858Z,39.38
2018-01-19T09:24:01.801Z,33.75
2018-01-19T09:25:01.778Z,33.75
2018-01-19T09:26:01.752Z,39.38
2018-01-19T09:27:01.709Z,39.38
2018-01-19T09:28:01.684Z,33.75
2018-01-19T09:29:01.671Z,33.75
2018-01-19T09:30:01.624Z,33.75
2018-01-19T09:31:01.599Z,33.75
2018-01-19T09:32:01.570Z,33.75
2018-01-19T09:33:01.557Z,33.75
2018-01-19T09:34:02.778Z,33.75
2018-01-19T09:35:01.488Z,33.75
2018-01-19T09:36:01.448Z,33.75
2018-01-19T09:37:01.433Z,33.75
2018-01-19T09:38:01.383Z,33.75
2018-01-19T09:39:01.363Z,39.38
2018-01-19T09:40:01.335Z,39.38
2018-01-19T09:41:01.306Z,39.38
2018-01-19T09:42:01.273Z,39.38
2018-01-19T09:43:01.247Z,45.00
2018-01-19T09:44:01.212Z,45.00
2018-01-19T09:45:01.210Z,45.00
2018-01-19T09:46:01.163Z,50.63
2018-01-19T09:47:01.127Z,50.63
2018-01-19T09:48:01.099Z,50.63
2018-01-19T09:49:01.069Z,45.00
2018-01-19T09:50:01.032Z,45.00
2018-01-19T09:51:01.017Z,45.00
2018-01-19T09:52:00.982Z,45.00
2018-01-19T09:53:00.948Z,45.00
2018-01-19T09:54:00.914Z,45.00
2018-01-19T09:55:00.889Z,39.38
2018-01-19T09:56:00.866Z,45.00
2018-01-19T09:57:00.829Z,33.75
2018-01-19T09:58:00.814Z,28.13
2018-01-19T09:59:00.779Z,33.75
2018-01-19T10:00:00.736Z,39.38
2018-01-19T10:01:00.715Z,45.00
2018-01-19T10:02:00.690Z,45.00
2018-01-19T10:03:00.652Z,56.25
2018-01-19T10:04:00.616Z,56.25
2018-01-19T10:05:00.597Z,56.25
2018-01-19T10:06:00.575Z,56.25
2018-01-19T10:07:00.538Z,56.25
2018-01-19T10:08:00.500Z,56.25
2018-01-19T10:09:00.475Z,56.25
2018-01-19T10:10:00.442Z,56.25
2018-01-19T10:11:00.448Z,56.25
2018-01-19T10:12:00.378Z,56.25
2018-01-19T10:13:00.370Z,56.25
2018-01-19T10:14:00.326Z,56.25
2018-01-19T10:15:00.310Z,56.25
2018-01-19T10:16:00.261Z,50.63
2018-01-19T10:17:00.229Z,56.25
2018-01-19T10:18:00.221Z,56.25
2018-01-19T10:19:00.182Z,56.25
2018-01-19T10:20:00.150Z,50.63
2018-01-19T10:21:00.131Z,45.00
2018-01-19T10:22:00.083Z,39.38
2018-01-19T10:23:00.064Z,39.38
2018-01-19T10:24:00.044Z,39.38
2018-01-19T10:24:59.992Z,50.63
2018-01-19T10:25:59.966Z,45.00
2018-01-19T10:26:59.943Z,45.00
2018-01-19T10:27:59.907Z,45.00
2018-01-19T10:28:59.902Z,50.63
2018-01-19T10:29:59.845Z,50.63
2018-01-19T10:30:59.818Z,56.25
2018-01-19T10:31:59.793Z,56.25
2018-01-19T10:32:59.766Z,50.63
2018-01-19T10:33:59.741Z,45.00
2018-01-19T10:34:59.708Z,56.25
2018-01-19T10:35:59.684Z,73.13
2018-01-19T10:36:59.646Z,78.75
2018-01-19T10:37:59.616Z,67.50
2018-01-19T10:38:59.580Z,67.50
2018-01-19T10:39:59.557Z,61.88
2018-01-19T10:40:59.533Z,67.50
2018-01-19T10:41:59.502Z,61.88
2018-01-19T10:42:59.486Z,56.25
2018-01-19T10:43:59.442Z,56.25
2018-01-19T10:44:59.404Z,50.63
2018-01-19T10:45:59.379Z,50.63
2018-01-19T10:46:59.352Z,61.88
2018-01-19T10:47:59.320Z,67.50
2018-01-19T10:48:59.287Z,67.50
2018-01-19T10:49:59.265Z,67.50
2018-01-19T10:50:59.238Z,56.25
2018-01-19T10:51:59.206Z,56.25
2018-01-19T10:52:59.179Z,56.25
2018-01-19T10:53:59.156Z,50.63
2018-01-19T10:54:59.116Z,50.63
2018-01-19T10:55:59.089Z,50.63
2018-01-19T10:56:59.063Z,56.25
2018-01-19T10:57:59.029Z,45.00
2018-01-19T10:58:59.000Z,45.00
2018-01-19T10:59:58.965Z,45.00
2018-01-19T11:00:58.940Z,56.25
2018-01-19T11:01:58.913Z,56.25
2018-01-19T11:02:58.898Z,50.63
2018-01-19T11:03:58.846Z,50.63
2018-01-19T11:04:58.837Z,50.63
2018-01-19T11:05:58.798Z,50.63
2018-01-19T11:06:58.773Z,45.00
2018-01-19T11:07:58.737Z,45.00
2018-01-19T11:08:58.695Z,56.25
2018-01-19T11:09:58.687Z,67.50
2018-01-19T11:10:58.639Z,61.88
2018-01-19T11:11:58.639Z,73.13
2018-01-19T11:12:58.580Z,78.75
2018-01-19T11:13:58.558Z,67.50
2018-01-19T11:14:58.531Z,73.13
2018-01-19T11:15:58.510Z,78.75
2018-01-19T11:16:58.462Z,67.50
2018-01-19T11:17:58.452Z,73.13
2018-01-19T11:18:58.415Z,61.88
2018-01-19T11:19:58.381Z,61.88
2018-01-19T11:20:58.345Z,67.50
2018-01-19T11:21:58.342Z,84.38
2018-01-19T11:22:58.296Z,78.75
2018-01-19T11:23:58.275Z,67.50
2018-01-19T11:24:58.272Z,61.88
2018-01-19T11:25:58.213Z,50.63
2018-01-19T11:26:58.175Z,50.63
2018-01-19T11:27:58.148Z,50.63
2018-01-19T11:28:58.112Z,67.50
2018-01-19T11:29:58.104Z,56.25
2018-01-19T11:30:58.073Z,56.25
2018-01-19T11:31:58.040Z,56.25
2018-01-19T11:32:58.002Z,78.75
2018-01-19T11:33:57.994Z,84.38
2018-01-19T11:34:57.943Z,84.38
2018-01-19T11:35:57.919Z,67.50
2018-01-19T11:36:57.882Z,56.25
2018-01-19T11:37:57.853Z,56.25
2018-01-19T11:38:57.827Z,61.88
2018-01-19T11:39:57.796Z,73.13
2018-01-19T11:40:57.770Z,78.75
2018-01-19T11:41:57.739Z,78.75
2018-01-19T11:42:57.714Z,78.75
2018-01-19T11:43:57.679Z,73.13
2018-01-19T11:44:57.655Z,73.13
2018-01-19T11:45:57.614Z,78.75
2018-01-19T11:46:57.585Z,84.38
2018-01-19T11:47:57.860Z,84.38
2018-01-19T11:48:57.540Z,78.75
2018-01-19T11:49:57.496Z,78.75
2018-01-19T11:50:57.489Z,78.75
2018-01-19T11:51:57.442Z,67.50
2018-01-19T11:52:57.408Z,56.25
2018-01-19T11:53:57.379Z,39.38
2018-01-19T11:54:57.362Z,33.75
2018-01-19T11:55:57.321Z,33.75
2018-01-19T11:56:57.286Z,45.00
2018-01-19T11:57:57.257Z,45.00
2018-01-19T11:58:57.240Z,45.00
2018-01-19T11:59:57.205Z,45.00
2018-01-19T12:00:57.226Z,56.25
2018-01-19T12:01:57.141Z,56.25
2018-01-19T12:02:57.118Z,56.25
2018-01-19T12:03:57.130Z,67.50
2018-01-19T12:04:57.060Z,84.38
2018-01-19T12:05:57.031Z,90.00
2018-01-19T12:06:56.999Z,112.50
2018-01-19T12:07:56.965Z,78.75
2018-01-19T12:08:56.947Z,61.88
2018-01-19T12:09:57.773Z,78.75
2018-01-19T12:10:56.882Z,56.25
2018-01-19T12:11:56.869Z,61.88
2018-01-19T12:12:56.831Z,50.63
2018-01-19T12:13:56.793Z,56.25
2018-01-19T12:14:56.768Z,56.25
2018-01-19T12:15:56.744Z,50.63
2018-01-19T12:16:56.713Z,61.88
2018-01-19T12:17:56.678Z,61.88
2018-01-19T12:18:56.679Z,73.13
2018-01-19T12:19:56.622Z,73.13
2018-01-19T12:20:56.587Z,78.75
2018-01-19T12:21:57.927Z,67.50
2018-01-19T12:22:57.026Z,56.25
2018-01-19T12:23:56.507Z,56.25
2018-01-19T12:24:56.474Z,73.13
2018-01-19T12:25:56.445Z,73.13
2018-01-19T12:26:56.423Z,78.75
2018-01-19T12:27:56.404Z,67.50
2018-01-19T12:28:56.360Z,56.25
2018-01-19T12:29:56.334Z,56.25
2018-01-19T12:30:56.301Z,61.88
2018-01-19T12:31:56.275Z,73.13
2018-01-19T12:32:56.255Z,67.50
2018-01-19T12:33:56.215Z,67.50
2018-01-19T12:34:56.186Z,56.25
2018-01-19T12:35:56.165Z,56.25
2018-01-19T12:36:56.137Z,67.50
2018-01-19T12:37:56.108Z,61.88
2018-01-19T12:38:56.071Z,61.88
2018-01-19T12:39:56.046Z,61.88
2018-01-19T12:40:56.018Z,56.25
2018-01-19T12:41:55.987Z,56.25
2018-01-19T12:42:55.959Z,56.25
2018-01-19T12:43:55.933Z,50.63
2018-01-19T12:44:55.902Z,50.63
2018-01-19T12:45:55.876Z,50.63
2018-01-19T12:46:55.845Z,50.63
2018-01-19T12:47:55.821Z,50.63
2018-01-19T12:48:55.786Z,45.00
2018-01-19T12:49:55.759Z,33.75
2018-01-19T12:50:55.728Z,33.75
2018-01-19T12:51:55.697Z,28.13
2018-01-19T12:52:55.674Z,33.75
2018-01-19T12:53:55.639Z,45.00
2018-01-19T12:54:55.613Z,56.25
2018-01-19T12:55:55.587Z,56.25
2018-01-19T12:56:55.560Z,50.63
2018-01-19T12:57:55.530Z,45.00
2018-01-19T12:58:55.500Z,39.38
2018-01-19T12:59:55.478Z,28.13
2018-01-19T13:00:55.440Z,28.13
2018-01-19T13:01:55.410Z,22.50
2018-01-19T13:02:55.381Z,28.13
2018-01-19T13:03:55.352Z,33.75
2018-01-19T13:04:55.329Z,39.38
2018-01-19T13:05:55.303Z,50.63
2018-01-19T13:06:55.270Z,73.13
2018-01-19T13:07:55.242Z,73.13
2018-01-19T13:08:55.211Z,61.88